createdAt,value
2023-05-04T00:23:39.954Z,3.50
2023-05-04T00:55:26.211Z,4.70
2023-05-04T00:59:39.808Z,3.20
2023-05-04T01:12:45.557Z,2.00
2023-05-04T01:16:50.922Z,2.20
2023-05-04T01:20:53.873Z,3.00
2023-05-04T01:24:48.989Z,3.00
2023-05-04T01:28:38.847Z,2.60
2023-05-04T01:32:14.021Z,2.70
2023-05-04T01:36:13.679Z,3.80
2023-05-04T01:39:35.897Z,2.90
2023-05-04T01:43:32.515Z,2.40
2023-05-04T01:48:02.231Z,2.30
2023-05-04T01:51:23.533Z,2.20
2023-05-04T01:55:19.785Z,2.20
2023-05-04T01:58:57.782Z,2.30
2023-05-04T02:02:55.035Z,3.70
2023-05-04T02:06:12.369Z,2.50
2023-05-04T02:09:41.297Z,2.70
2023-05-04T02:13:10.829Z,1.70
2023-05-04T02:16:25.271Z,2.00
2023-05-04T02:20:16.774Z,4.50
2023-05-04T02:23:45.404Z,3.80
2023-05-04T02:27:37.018Z,1.80
2023-05-04T02:31:48.444Z,3.10
2023-05-04T02:35:17.757Z,3.20
2023-05-04T02:38:48.072Z,3.10
2023-05-04T02:42:15.154Z,2.90
2023-05-04T02:46:00.881Z,2.10
2023-05-04T02:49:20.532Z,2.10
2023-05-04T02:52:59.566Z,3.70
2023-05-04T02:56:20.366Z,2.20
2023-05-04T02:59:16.859Z,3.20
2023-05-04T03:03:04.145Z,2.40
2023-05-04T03:06:42.985Z,1.80
2023-05-04T03:10:13.202Z,2.20
2023-05-04T03:13:48.379Z,3.80
2023-05-04T03:17:24.675Z,4.70
2023-05-04T03:20:24.596Z,3.90
2023-05-04T03:23:45.277Z,4.10
2023-05-04T03:26:57.491Z,4.00
2023-05-04T03:30:16.371Z,4.40
2023-05-04T03:33:44.185Z,5.30
2023-05-04T03:36:35.894Z,5.20
2023-05-04T03:39:53.922Z,4.50
2023-05-04T03:43:15.919Z,4.90
2023-05-04T03:46:15.437Z,3.60
2023-05-04T03:50:05.356Z,4.20
2023-05-04T03:54:17.321Z,4.20
2023-05-04T03:57:58.213Z,5.40
2023-05-04T04:01:32.805Z,5.00
2023-05-04T04:04:42.087Z,4.90
2023-05-04T04:08:10.908Z,8.40
2023-05-04T04:11:17.070Z,6.50
2023-05-04T04:14:37.777Z,6.90
2023-05-04T04:18:37.186Z,5.90
2023-05-04T04:22:56.936Z,5.00
2023-05-04T04:27:12.666Z,5.80
2023-05-04T04:30:32.575Z,5.30
2023-05-04T14:01:17.472Z,1.60
2023-05-04T14:03:46.903Z,2.40
2023-05-04T14:06:15.475Z,2.50
2023-05-04T14:08:44.045Z,1.80
2023-05-04T14:11:12.507Z,2.90
2023-05-04T14:13:41.068Z,1.70
2023-05-04T14:16:10.470Z,1.90
2023-05-04T14:18:56.905Z,1.60
2023-05-04T14:22:22.496Z,1.70
2023-05-04T14:25:46.522Z,2.00
2023-05-04T14:28:15.926Z,2.00
2023-05-04T14:31:25.332Z,1.30
2023-05-04T14:34:13.320Z,1.90
2023-05-04T15:15:54.918Z,1.90
2023-05-04T15:18:24.364Z,1.80
2023-05-04T15:20:52.980Z,2.00
2023-05-04T15:23:21.785Z,2.60
2023-05-04T15:25:50.307Z,3.00
2023-05-04T15:28:22.818Z,1.90
2023-05-04T15:30:51.342Z,1.30
2023-05-04T15:33:19.847Z,1.60
2023-05-04T15:35:48.420Z,2.10
2023-05-04T15:38:18.344Z,1.20
2023-05-04T15:40:46.806Z,2.20
2023-05-04T15:43:15.520Z,2.70
2023-05-04T15:45:44.034Z,1.80
2023-05-04T15:48:12.655Z,1.30
2023-05-04T15:51:19.185Z,1.40
